Agua Caliente, CA

4:16 AM PDT on May 04, 2015 (GMT -0700)
McClellan-Palomar | | Change Station
CLOSE
Current Station
Airport
Location: Carlsbad,
Elevation: 328 ft
Nearby Weather Stations

Elev 328 ft 33.13 °N, 117.28 °W | Updated 23 minutes ago

Overcast
Overcast
59 °F
Feels Like 59 °F
N
4
Wind Variable Wind from NNW

Today
High -- | Low -- °F
--% Chance of Precip.
Yesterday
High -- | Low -- °F
Precip. -- in
5:55 AM 7:31 PM
Full, 100% visible
Pressure 29.90 in
Visibility 6.0 miles
Clouds Few 500 ft
Mostly Cloudy 1600 ft
Overcast 2300 ft
Dew Point 56 °F
Humidity 90%
Rainfall 0.00 in
Snow Depth Not available.
UV 0 out of 12
Pollen 6.90 out of 12
Air Quality Not available.
Flu Activity Sporadic
METAR KCRQ 041053Z AUTO 34003KT 6SM BR FEW005 BKN016 OVC023 15/13 A2990 RMK AO2 SLP124 T01500133 TSNO $

More Conditions Fewer Conditions

Pressure 29.90 in
Visibility 6.0 miles
Clouds Few 500 ft
Mostly Cloudy 1600 ft
Overcast 2300 ft
Dew Point 56 °F
Humidity 90%
Rainfall 0.00 in
Snow Depth Not available.
UV 0 out of 12
Pollen 6.90 out of 12
Air Quality Not available.
Flu Activity Sporadic
METAR KCRQ 041053Z AUTO 34003KT 6SM BR FEW005 BKN016 OVC023 15/13 A2990 RMK AO2 SLP124 T01500133 TSNO $

More Conditions Fewer Conditions

Nepal has a long way to go to dig out and rebuild from a devastating earthquake. We have teamed up with several charities and organizations to make contributing to the relief effort as easy as possible.
How you can help: Portlight Strategies | Red Cross

10-Day Weather Forecast

Almanac

Astronomy

May. 04, 2015 Rise Set
Actual Time
Civil Twilight
Nautical Twilight
Astronomical Twilight
Moon
Length of Visible Light
Length of Day
Tomorrow will be .
, % of the Moon is Illuminated

Today's Extremes

State Highs State Lows

Community

WunderPhotos

Upload Photos

1,818,565 photos uploaded!

WunderBlogs® & News

Nearby

Air Quality

  Air Quality AQ Index Pollutant
Not available.

Snow Depth

Station Depth Elevation

Earthquake Activity

City Distance Mag. Time & Date
Minimum magnitude displayed is 2.5.

Coastal Water Temperatures

Place Temperature

Stations

Nearby Weather Stations

Station Location Temp. Windchill Dew Point Humidity Wind Precip. Elev Updated Type